Tropical Cyclones
[Index]
Main Index Home Page Stock Weather Photos Extreme Storms Discussion Storm News and Storm Chasing Reports Tropical Cyclones / Hurricanes / Typhoons Weather Data and Links Wild Fires / Bushfires Weather Observation Techniques Weather Picture Catalogue Tornado Pictures and Reports Stock Video Footage and DVDs for sale
Season 1959-1960 Tropical Cyclone 195960_06 Track Map
Season 1959-1960 Summaries: [BoM-AU] [JTWC-AU] [JTWC-SIO] [JTWC-SPAC] [JTWC-SH]
<<- Previous TC | BoM 1959-1960 Season | Next TC ->>

click for intensity scale information  Lat/long Grid: Show Hide

 Date Labels: Show Hide

Bureau of Meteorology Tropical Cyclone Data

Name: 195960_06
Number: 327 / 195960_06

14 Mar 1960 23:00 UTC to 27 Mar 1960 07:00 UTC

    date/time    lat    long    hPa   cat  kts
1960-03-14 23   12.4   149.0   1005                     
1960-03-15 11   12.5   147.9   1002                     
1960-03-15 23   12.5   147.2   1002                     
1960-03-16 11   12.5   146.7   1002                     
1960-03-16 23   12.5   146.2   1002                     
1960-03-17 11   12.5   145.7   1002                     
1960-03-17 23   12.5   145.3   1002                     
1960-03-18 11   12.5   145.0   1002                     
1960-03-18 23   12.5   144.3   1002                     
1960-03-19 11   12.5   144.0   1002                     
1960-03-19 23   12.5   143.5   1000                     
1960-03-20 05   12.5   143.2    998                     
1960-03-20 11   12.4   142.8   1000                     
1960-03-20 17   12.5   141.8   1002                     
1960-03-20 18   12.6   141.6   1002                     
1960-03-20 23   13.0   140.2   1003                     
1960-03-21 05   13.3   138.6   1003                     
1960-03-21 11   13.3   137.2   1003                     
1960-03-21 14   13.2   136.6   1003                     
1960-03-21 17   13.2   135.9   1003                     
1960-03-21 23   13.2   134.2   1003                     
1960-03-22 05   13.1   132.2   1003                     
1960-03-22 11   13.0   130.8   1003                     
1960-03-22 15   12.9   130.2   1003                     
1960-03-22 17   12.9   130.0                            
1960-03-22 23   12.9   128.0    995    1                
1960-03-23 10   13.3   126.0    980    2                
1960-03-24 01   15.0   121.5    975    2                
1960-03-24 10   15.8   119.5    973    2                
1960-03-25 01   17.7   116.5    970    3                
1960-03-25 13   19.0   115.2                            
1960-03-26 01   21.0   114.0    965    3                
1960-03-26 10   22.5   113.5    965    3                
1960-03-26 14   24.0   113.3    965    3                
1960-03-26 16   24.7   113.5    965    3                
1960-03-26 19   26.0   113.9    980    2                
1960-03-26 20   26.5   114.0    980    2                
1960-03-26 22   27.7   114.3    990    1                
1960-03-27 01   29.4   114.9    994    1                
1960-03-27 03   30.6   115.1    995    1                
1960-03-27 07   32.2   115.3    996                     
Winds are 10-min average.

Tropical cyclone tracks developed by Michael Bath using data from the Bureau of Meteorology and Google Maps.


[Australian Severe Weather index] [Copyright Notice] [Email Contacts] [Search This Site] [Privacy Policy]
Document: tropical_cyclone_195960_06.htm Updated: 30 May 2013